sensor_id;sensor_type;location;lat;lon;timestamp;P1;durP1;ratioP1;P2;durP2;ratioP2
64851;SDS011;56050;55.558;-4.644;2024-03-08T00:00:03;3.42;;;1.45;;
64851;SDS011;56050;55.558;-4.644;2024-03-08T00:02:37;4.25;;;3.15;;
64851;SDS011;56050;55.558;-4.644;2024-03-08T00:05:06;3.90;;;1.60;;
64851;SDS011;56050;55.558;-4.644;2024-03-08T00:07:38;4.55;;;1.35;;
64851;SDS011;56050;55.558;-4.644;2024-03-08T00:10:05;4.60;;;1.60;;
64851;SDS011;56050;55.558;-4.644;2024-03-08T00:12:32;4.32;;;2.00;;
64851;SDS011;56050;55.558;-4.644;2024-03-08T00:17:23;4.37;;;1.47;;
64851;SDS011;56050;55.558;-4.644;2024-03-08T00:22:15;4.40;;;1.15;;
64851;SDS011;56050;55.558;-4.644;2024-03-08T00:24:41;3.88;;;1.17;;
64851;SDS011;56050;55.558;-4.644;2024-03-08T00:29:34;7.18;;;1.63;;
64851;SDS011;56050;55.558;-4.644;2024-03-08T00:34:25;2.97;;;1.20;;
64851;SDS011;56050;55.558;-4.644;2024-03-08T00:39:17;7.78;;;1.45;;
64851;SDS011;56050;55.558;-4.644;2024-03-08T00:41:45;5.55;;;2.50;;
64851;SDS011;56050;55.558;-4.644;2024-03-08T00:46:36;4.05;;;1.55;;
64851;SDS011;56050;55.558;-4.644;2024-03-08T00:51:26;4.40;;;1.83;;
64851;SDS011;56050;55.558;-4.644;2024-03-08T00:56:17;4.43;;;3.00;;
64851;SDS011;56050;55.558;-4.644;2024-03-08T01:01:08;4.47;;;2.33;;
64851;SDS011;56050;55.558;-4.644;2024-03-08T01:03:35;3.30;;;1.92;;
64851;SDS011;56050;55.558;-4.644;2024-03-08T01:06:01;5.60;;;1.90;;
64851;SDS011;56050;55.558;-4.644;2024-03-08T01:10:52;3.67;;;1.30;;
64851;SDS011;56050;55.558;-4.644;2024-03-08T01:15:44;3.40;;;1.52;;
64851;SDS011;56050;55.558;-4.644;2024-03-08T01:18:10;3.50;;;2.08;;
64851;SDS011;56050;55.558;-4.644;2024-03-08T01:23:01;4.23;;;1.73;;
64851;SDS011;56050;55.558;-4.644;2024-03-08T01:27:52;4.37;;;1.33;;
64851;SDS011;56050;55.558;-4.644;2024-03-08T01:30:19;3.35;;;2.50;;
64851;SDS011;56050;55.558;-4.644;2024-03-08T01:32:44;2.63;;;1.02;;
64851;SDS011;56050;55.558;-4.644;2024-03-08T01:37:36;4.63;;;2.72;;
64851;SDS011;56050;55.558;-4.644;2024-03-08T01:40:02;3.35;;;2.08;;
64851;SDS011;56050;55.558;-4.644;2024-03-08T01:42:28;2.80;;;0.88;;
64851;SDS011;56050;55.558;-4.644;2024-03-08T01:47:19;3.88;;;1.65;;
64851;SDS011;56050;55.558;-4.644;2024-03-08T01:49:48;3.47;;;1.35;;
64851;SDS011;56050;55.558;-4.644;2024-03-08T01:52:15;4.90;;;1.73;;
64851;SDS011;56050;55.558;-4.644;2024-03-08T01:54:43;3.55;;;1.63;;
64851;SDS011;56050;55.558;-4.644;2024-03-08T01:57:10;6.68;;;1.95;;
64851;SDS011;56050;55.558;-4.644;2024-03-08T01:59:36;5.30;;;1.98;;
64851;SDS011;56050;55.558;-4.644;2024-03-08T02:04:31;8.70;;;2.65;;
64851;SDS011;56050;55.558;-4.644;2024-03-08T02:09:23;3.95;;;1.15;;
64851;SDS011;56050;55.558;-4.644;2024-03-08T02:11:50;4.28;;;1.33;;
64851;SDS011;56050;55.558;-4.644;2024-03-08T02:14:16;6.35;;;1.75;;
64851;SDS011;56050;55.558;-4.644;2024-03-08T02:16:44;5.85;;;1.40;;
64851;SDS011;56050;55.558;-4.644;2024-03-08T02:21:34;6.10;;;2.20;;
64851;SDS011;56050;55.558;-4.644;2024-03-08T02:24:01;8.02;;;3.85;;
64851;SDS011;56050;55.558;-4.644;2024-03-08T02:28:52;6.35;;;1.25;;
64851;SDS011;56050;55.558;-4.644;2024-03-08T02:31:18;7.30;;;2.10;;
64851;SDS011;56050;55.558;-4.644;2024-03-08T02:36:09;4.53;;;1.90;;
64851;SDS011;56050;55.558;-4.644;2024-03-08T02:41:00;5.33;;;1.53;;
64851;SDS011;56050;55.558;-4.644;2024-03-08T02:45:51;3.15;;;1.23;;
64851;SDS011;56050;55.558;-4.644;2024-03-08T02:48:19;3.42;;;1.50;;
64851;SDS011;56050;55.558;-4.644;2024-03-08T02:50:46;5.50;;;2.28;;
64851;SDS011;56050;55.558;-4.644;2024-03-08T02:55:38;2.75;;;1.25;;
64851;SDS011;56050;55.558;-4.644;2024-03-08T02:58:05;7.43;;;1.75;;
64851;SDS011;56050;55.558;-4.644;2024-03-08T03:00:33;4.65;;;1.42;;
64851;SDS011;56050;55.558;-4.644;2024-03-08T03:05:24;4.35;;;1.83;;
64851;SDS011;56050;55.558;-4.644;2024-03-08T03:10:16;2.92;;;1.80;;
64851;SDS011;56050;55.558;-4.644;2024-03-08T03:12:43;3.47;;;1.13;;
64851;SDS011;56050;55.558;-4.644;2024-03-08T03:15:10;6.78;;;3.53;;
64851;SDS011;56050;55.558;-4.644;2024-03-08T03:17:36;4.82;;;2.03;;
64851;SDS011;56050;55.558;-4.644;2024-03-08T03:22:34;4.00;;;2.35;;
64851;SDS011;56050;55.558;-4.644;2024-03-08T03:27:27;5.20;;;2.08;;
64851;SDS011;56050;55.558;-4.644;2024-03-08T03:32:18;4.30;;;1.57;;
64851;SDS011;56050;55.558;-4.644;2024-03-08T03:34:43;3.50;;;1.70;;
64851;SDS011;56050;55.558;-4.644;2024-03-08T03:39:37;4.25;;;1.58;;
64851;SDS011;56050;55.558;-4.644;2024-03-08T03:42:18;3.13;;;1.35;;
64851;SDS011;56050;55.558;-4.644;2024-03-08T03:44:47;3.42;;;1.17;;
64851;SDS011;56050;55.558;-4.644;2024-03-08T03:47:14;5.22;;;2.17;;
64851;SDS011;56050;55.558;-4.644;2024-03-08T03:49:43;4.22;;;1.65;;
64851;SDS011;56050;55.558;-4.644;2024-03-08T03:52:09;3.70;;;1.30;;
64851;SDS011;56050;55.558;-4.644;2024-03-08T03:54:35;3.80;;;0.98;;
64851;SDS011;56050;55.558;-4.644;2024-03-08T03:59:27;3.50;;;1.80;;
64851;SDS011;56050;55.558;-4.644;2024-03-08T04:04:19;3.83;;;1.15;;
64851;SDS011;56050;55.558;-4.644;2024-03-08T04:09:10;4.93;;;1.75;;
64851;SDS011;56050;55.558;-4.644;2024-03-08T04:11:37;2.53;;;1.73;;
64851;SDS011;56050;55.558;-4.644;2024-03-08T04:14:03;5.45;;;1.85;;
64851;SDS011;56050;55.558;-4.644;2024-03-08T04:16:30;3.85;;;0.90;;
64851;SDS011;56050;55.558;-4.644;2024-03-08T04:18:56;2.67;;;1.95;;
64851;SDS011;56050;55.558;-4.644;2024-03-08T04:23:47;4.25;;;2.95;;
64851;SDS011;56050;55.558;-4.644;2024-03-08T04:28:38;3.83;;;2.03;;
64851;SDS011;56050;55.558;-4.644;2024-03-08T04:31:04;5.07;;;1.65;;
64851;SDS011;56050;55.558;-4.644;2024-03-08T04:35:55;4.60;;;1.13;;
64851;SDS011;56050;55.558;-4.644;2024-03-08T04:40:47;3.13;;;1.50;;
64851;SDS011;56050;55.558;-4.644;2024-03-08T04:43:14;4.13;;;1.13;;
64851;SDS011;56050;55.558;-4.644;2024-03-08T04:48:07;3.25;;;1.67;;
64851;SDS011;56050;55.558;-4.644;2024-03-08T04:50:33;5.60;;;2.67;;
64851;SDS011;56050;55.558;-4.644;2024-03-08T04:55:24;4.90;;;1.02;;
64851;SDS011;56050;55.558;-4.644;2024-03-08T05:00:15;2.47;;;0.97;;
64851;SDS011;56050;55.558;-4.644;2024-03-08T05:02:41;7.65;;;1.40;;
64851;SDS011;56050;55.558;-4.644;2024-03-08T05:07:33;4.47;;;1.27;;
64851;SDS011;56050;55.558;-4.644;2024-03-08T05:12:24;3.78;;;0.95;;
64851;SDS011;56050;55.558;-4.644;2024-03-08T05:14:50;3.30;;;1.15;;
64851;SDS011;56050;55.558;-4.644;2024-03-08T05:19:42;5.40;;;1.05;;
64851;SDS011;56050;55.558;-4.644;2024-03-08T05:24:33;4.55;;;1.23;;
64851;SDS011;56050;55.558;-4.644;2024-03-08T05:29:25;8.02;;;4.25;;
64851;SDS011;56050;55.558;-4.644;2024-03-08T05:34:20;5.15;;;1.50;;
64851;SDS011;56050;55.558;-4.644;2024-03-08T05:36:47;4.20;;;2.28;;
64851;SDS011;56050;55.558;-4.644;2024-03-08T05:39:16;4.32;;;1.67;;
64851;SDS011;56050;55.558;-4.644;2024-03-08T05:41:42;6.13;;;2.30;;
64851;SDS011;56050;55.558;-4.644;2024-03-08T05:44:08;6.55;;;1.40;;
64851;SDS011;56050;55.558;-4.644;2024-03-08T05:46:35;4.93;;;1.70;;
64851;SDS011;56050;55.558;-4.644;2024-03-08T05:49:01;2.60;;;1.30;;
64851;SDS011;56050;55.558;-4.644;2024-03-08T05:51:33;2.67;;;1.15;;
64851;SDS011;56050;55.558;-4.644;2024-03-08T05:54:00;5.20;;;1.25;;
64851;SDS011;56050;55.558;-4.644;2024-03-08T05:56:30;4.15;;;1.48;;
64851;SDS011;56050;55.558;-4.644;2024-03-08T06:01:23;5.25;;;0.98;;
64851;SDS011;56050;55.558;-4.644;2024-03-08T06:03:49;7.85;;;3.35;;
64851;SDS011;56050;55.558;-4.644;2024-03-08T06:08:40;6.88;;;2.97;;
64851;SDS011;56050;55.558;-4.644;2024-03-08T06:11:08;3.70;;;1.10;;
64851;SDS011;56050;55.558;-4.644;2024-03-08T06:16:00;4.00;;;1.40;;
64851;SDS011;56050;55.558;-4.644;2024-03-08T06:18:26;2.55;;;1.60;;
64851;SDS011;56050;55.558;-4.644;2024-03-08T06:23:17;3.83;;;1.75;;
64851;SDS011;56050;55.558;-4.644;2024-03-08T06:28:09;2.45;;;1.10;;
64851;SDS011;56050;55.558;-4.644;2024-03-08T06:33:00;2.53;;;1.13;;
64851;SDS011;56050;55.558;-4.644;2024-03-08T06:37:51;7.23;;;1.33;;
64851;SDS011;56050;55.558;-4.644;2024-03-08T06:42:42;1.20;;;0.90;;
64851;SDS011;56050;55.558;-4.644;2024-03-08T06:45:08;3.47;;;1.83;;
64851;SDS011;56050;55.558;-4.644;2024-03-08T06:47:35;5.38;;;1.83;;
64851;SDS011;56050;55.558;-4.644;2024-03-08T06:52:26;2.67;;;2.47;;
64851;SDS011;56050;55.558;-4.644;2024-03-08T06:57:17;0.97;;;0.57;;
64851;SDS011;56050;55.558;-4.644;2024-03-08T06:59:45;6.68;;;3.38;;
64851;SDS011;56050;55.558;-4.644;2024-03-08T07:04:36;5.60;;;1.38;;
64851;SDS011;56050;55.558;-4.644;2024-03-08T07:07:06;5.25;;;1.52;;
64851;SDS011;56050;55.558;-4.644;2024-03-08T07:09:37;4.35;;;1.45;;
64851;SDS011;56050;55.558;-4.644;2024-03-08T07:12:03;4.60;;;1.27;;
64851;SDS011;56050;55.558;-4.644;2024-03-08T07:16:55;3.10;;;1.17;;
64851;SDS011;56050;55.558;-4.644;2024-03-08T07:21:47;4.83;;;1.50;;
64851;SDS011;56050;55.558;-4.644;2024-03-08T07:24:12;3.53;;;1.58;;
64851;SDS011;56050;55.558;-4.644;2024-03-08T07:26:41;3.38;;;1.73;;
64851;SDS011;56050;55.558;-4.644;2024-03-08T07:31:33;2.40;;;2.05;;
64851;SDS011;56050;55.558;-4.644;2024-03-08T07:34:17;4.20;;;0.93;;
64851;SDS011;56050;55.558;-4.644;2024-03-08T07:39:08;2.67;;;1.23;;
64851;SDS011;56050;55.558;-4.644;2024-03-08T07:41:37;3.60;;;1.48;;
64851;SDS011;56050;55.558;-4.644;2024-03-08T07:44:05;2.72;;;1.20;;
64851;SDS011;56050;55.558;-4.644;2024-03-08T07:46:32;5.38;;;2.08;;
64851;SDS011;56050;55.558;-4.644;2024-03-08T07:48:59;5.65;;;2.03;;
64851;SDS011;56050;55.558;-4.644;2024-03-08T07:53:50;5.10;;;1.43;;
64851;SDS011;56050;55.558;-4.644;2024-03-08T07:58:43;3.00;;;2.00;;
64851;SDS011;56050;55.558;-4.644;2024-03-08T08:01:16;3.22;;;1.27;;
64851;SDS011;56050;55.558;-4.644;2024-03-08T08:03:42;7.55;;;1.80;;
64851;SDS011;56050;55.558;-4.644;2024-03-08T08:08:33;4.00;;;1.33;;
64851;SDS011;56050;55.558;-4.644;2024-03-08T08:13:24;4.43;;;1.25;;
64851;SDS011;56050;55.558;-4.644;2024-03-08T08:18:15;3.55;;;2.10;;
64851;SDS011;56050;55.558;-4.644;2024-03-08T08:23:06;3.20;;;1.63;;
64851;SDS011;56050;55.558;-4.644;2024-03-08T08:27:59;5.60;;;1.42;;
64851;SDS011;56050;55.558;-4.644;2024-03-08T08:32:50;3.03;;;2.43;;
64851;SDS011;56050;55.558;-4.644;2024-03-08T08:35:16;5.25;;;1.30;;
64851;SDS011;56050;55.558;-4.644;2024-03-08T08:37:43;5.80;;;2.03;;
64851;SDS011;56050;55.558;-4.644;2024-03-08T08:40:09;3.03;;;1.10;;
64851;SDS011;56050;55.558;-4.644;2024-03-08T08:42:39;4.63;;;1.77;;
64851;SDS011;56050;55.558;-4.644;2024-03-08T08:47:34;2.90;;;1.42;;
64851;SDS011;56050;55.558;-4.644;2024-03-08T08:50:00;3.70;;;1.35;;
64851;SDS011;56050;55.558;-4.644;2024-03-08T08:54:51;3.57;;;1.77;;
64851;SDS011;56050;55.558;-4.644;2024-03-08T08:59:42;5.18;;;1.98;;
64851;SDS011;56050;55.558;-4.644;2024-03-08T09:04:34;2.90;;;1.83;;
64851;SDS011;56050;55.558;-4.644;2024-03-08T09:07:00;6.75;;;1.55;;
64851;SDS011;56050;55.558;-4.644;2024-03-08T09:11:52;1.97;;;0.93;;
64851;SDS011;56050;55.558;-4.644;2024-03-08T09:16:43;3.58;;;1.20;;
64851;SDS011;56050;55.558;-4.644;2024-03-08T09:19:08;3.00;;;1.58;;
64851;SDS011;56050;55.558;-4.644;2024-03-08T09:21:36;4.72;;;2.75;;
64851;SDS011;56050;55.558;-4.644;2024-03-08T09:24:02;4.43;;;2.92;;
64851;SDS011;56050;55.558;-4.644;2024-03-08T09:28:53;2.88;;;1.58;;
64851;SDS011;56050;55.558;-4.644;2024-03-08T09:31:20;6.00;;;2.30;;
64851;SDS011;56050;55.558;-4.644;2024-03-08T09:33:46;6.05;;;2.10;;
64851;SDS011;56050;55.558;-4.644;2024-03-08T09:38:39;4.18;;;3.20;;
64851;SDS011;56050;55.558;-4.644;2024-03-08T09:43:30;4.43;;;2.13;;
64851;SDS011;56050;55.558;-4.644;2024-03-08T09:48:22;4.70;;;2.08;;
64851;SDS011;56050;55.558;-4.644;2024-03-08T09:53:13;3.58;;;1.23;;
64851;SDS011;56050;55.558;-4.644;2024-03-08T09:58:07;3.83;;;2.05;;
64851;SDS011;56050;55.558;-4.644;2024-03-08T10:00:56;3.88;;;1.55;;
64851;SDS011;56050;55.558;-4.644;2024-03-08T10:03:22;3.30;;;1.60;;
64851;SDS011;56050;55.558;-4.644;2024-03-08T10:05:48;4.55;;;1.50;;
64851;SDS011;56050;55.558;-4.644;2024-03-08T10:10:39;6.40;;;2.07;;
64851;SDS011;56050;55.558;-4.644;2024-03-08T10:15:34;4.68;;;2.83;;
64851;SDS011;56050;55.558;-4.644;2024-03-08T10:18:00;2.10;;;0.70;;
64851;SDS011;56050;55.558;-4.644;2024-03-08T10:20:27;5.57;;;1.45;;
64851;SDS011;56050;55.558;-4.644;2024-03-08T10:23:01;3.40;;;1.40;;
64851;SDS011;56050;55.558;-4.644;2024-03-08T10:25:28;4.75;;;1.95;;
64851;SDS011;56050;55.558;-4.644;2024-03-08T10:27:55;4.93;;;1.92;;
64851;SDS011;56050;55.558;-4.644;2024-03-08T10:32:47;3.30;;;1.92;;
64851;SDS011;56050;55.558;-4.644;2024-03-08T10:35:13;7.88;;;1.92;;
64851;SDS011;56050;55.558;-4.644;2024-03-08T10:42:43;5.68;;;2.13;;
64851;SDS011;56050;55.558;-4.644;2024-03-08T10:45:22;5.03;;;1.67;;
64851;SDS011;56050;55.558;-4.644;2024-03-08T10:48:43;6.50;;;2.08;;
64851;SDS011;56050;55.558;-4.644;2024-03-08T10:51:03;4.70;;;2.22;;
64851;SDS011;56050;55.558;-4.644;2024-03-08T10:53:30;4.82;;;1.92;;
64851;SDS011;56050;55.558;-4.644;2024-03-08T10:55:56;6.95;;;2.40;;
64851;SDS011;56050;55.558;-4.644;2024-03-08T10:58:23;5.00;;;2.40;;
64851;SDS011;56050;55.558;-4.644;2024-03-08T11:00:53;5.40;;;2.17;;
64851;SDS011;56050;55.558;-4.644;2024-03-08T11:06:13;6.25;;;2.28;;
64851;SDS011;56050;55.558;-4.644;2024-03-08T11:08:40;6.68;;;3.33;;
64851;SDS011;56050;55.558;-4.644;2024-03-08T11:13:48;5.93;;;2.15;;
64851;SDS011;56050;55.558;-4.644;2024-03-08T11:21:24;6.90;;;2.03;;
64851;SDS011;56050;55.558;-4.644;2024-03-08T11:24:01;5.55;;;2.28;;
64851;SDS011;56050;55.558;-4.644;2024-03-08T11:26:28;8.43;;;2.72;;
64851;SDS011;56050;55.558;-4.644;2024-03-08T11:29:22;7.55;;;2.75;;
64851;SDS011;56050;55.558;-4.644;2024-03-08T11:34:53;6.13;;;2.28;;
64851;SDS011;56050;55.558;-4.644;2024-03-08T11:39:49;6.22;;;4.22;;
64851;SDS011;56050;55.558;-4.644;2024-03-08T11:42:17;17.17;;;3.40;;
64851;SDS011;56050;55.558;-4.644;2024-03-08T11:44:45;12.30;;;3.17;;
64851;SDS011;56050;55.558;-4.644;2024-03-08T11:47:11;8.20;;;2.60;;
64851;SDS011;56050;55.558;-4.644;2024-03-08T11:49:37;5.47;;;2.03;;
64851;SDS011;56050;55.558;-4.644;2024-03-08T11:52:04;10.27;;;2.95;;
64851;SDS011;56050;55.558;-4.644;2024-03-08T11:54:30;8.80;;;2.88;;
64851;SDS011;56050;55.558;-4.644;2024-03-08T11:59:28;5.30;;;2.33;;
64851;SDS011;56050;55.558;-4.644;2024-03-08T12:02:13;6.35;;;2.35;;
64851;SDS011;56050;55.558;-4.644;2024-03-08T12:04:39;7.93;;;2.45;;
64851;SDS011;56050;55.558;-4.644;2024-03-08T12:07:09;9.65;;;3.58;;
64851;SDS011;56050;55.558;-4.644;2024-03-08T12:09:37;6.53;;;2.95;;
64851;SDS011;56050;55.558;-4.644;2024-03-08T12:12:03;8.25;;;3.55;;
64851;SDS011;56050;55.558;-4.644;2024-03-08T12:14:33;9.57;;;3.92;;
64851;SDS011;56050;55.558;-4.644;2024-03-08T12:16:59;10.20;;;3.15;;
64851;SDS011;56050;55.558;-4.644;2024-03-08T12:19:27;10.27;;;3.28;;
64851;SDS011;56050;55.558;-4.644;2024-03-08T12:21:53;6.72;;;3.20;;
64851;SDS011;56050;55.558;-4.644;2024-03-08T12:24:19;7.80;;;2.75;;
64851;SDS011;56050;55.558;-4.644;2024-03-08T12:26:46;8.27;;;3.05;;
64851;SDS011;56050;55.558;-4.644;2024-03-08T12:31:54;8.77;;;3.75;;
64851;SDS011;56050;55.558;-4.644;2024-03-08T12:34:21;7.00;;;2.40;;
64851;SDS011;56050;55.558;-4.644;2024-03-08T12:36:50;8.32;;;2.92;;
64851;SDS011;56050;55.558;-4.644;2024-03-08T12:39:19;6.90;;;2.47;;
64851;SDS011;56050;55.558;-4.644;2024-03-08T12:41:52;13.40;;;4.15;;
64851;SDS011;56050;55.558;-4.644;2024-03-08T12:44:19;8.52;;;3.72;;
64851;SDS011;56050;55.558;-4.644;2024-03-08T12:46:46;7.10;;;3.25;;
64851;SDS011;56050;55.558;-4.644;2024-03-08T12:49:13;11.95;;;4.18;;
64851;SDS011;56050;55.558;-4.644;2024-03-08T12:51:43;14.02;;;4.65;;
64851;SDS011;56050;55.558;-4.644;2024-03-08T12:54:09;17.25;;;5.30;;
64851;SDS011;56050;55.558;-4.644;2024-03-08T12:56:35;12.63;;;4.65;;
64851;SDS011;56050;55.558;-4.644;2024-03-08T12:59:02;16.85;;;6.53;;
64851;SDS011;56050;55.558;-4.644;2024-03-08T13:01:30;12.32;;;4.15;;
64851;SDS011;56050;55.558;-4.644;2024-03-08T13:03:59;11.00;;;4.45;;
64851;SDS011;56050;55.558;-4.644;2024-03-08T13:06:27;12.20;;;6.07;;
64851;SDS011;56050;55.558;-4.644;2024-03-08T13:08:54;10.13;;;4.30;;
64851;SDS011;56050;55.558;-4.644;2024-03-08T13:11:20;14.02;;;4.72;;
64851;SDS011;56050;55.558;-4.644;2024-03-08T13:13:46;12.82;;;3.78;;
64851;SDS011;56050;55.558;-4.644;2024-03-08T13:16:12;15.77;;;6.03;;
64851;SDS011;56050;55.558;-4.644;2024-03-08T13:18:42;13.02;;;5.18;;
64851;SDS011;56050;55.558;-4.644;2024-03-08T13:21:08;10.32;;;4.15;;
64851;SDS011;56050;55.558;-4.644;2024-03-08T13:23:36;14.70;;;4.30;;
64851;SDS011;56050;55.558;-4.644;2024-03-08T13:26:09;19.50;;;5.82;;
64851;SDS011;56050;55.558;-4.644;2024-03-08T13:28:40;11.02;;;3.50;;
64851;SDS011;56050;55.558;-4.644;2024-03-08T13:31:06;10.65;;;3.92;;
64851;SDS011;56050;55.558;-4.644;2024-03-08T13:33:34;9.52;;;4.70;;
64851;SDS011;56050;55.558;-4.644;2024-03-08T13:36:01;18.13;;;5.40;;
64851;SDS011;56050;55.558;-4.644;2024-03-08T13:38:29;10.68;;;4.88;;
64851;SDS011;56050;55.558;-4.644;2024-03-08T13:40:57;16.45;;;5.53;;
64851;SDS011;56050;55.558;-4.644;2024-03-08T13:43:23;15.35;;;5.32;;
64851;SDS011;56050;55.558;-4.644;2024-03-08T13:45:49;13.93;;;5.45;;
64851;SDS011;56050;55.558;-4.644;2024-03-08T13:48:15;11.52;;;4.25;;
64851;SDS011;56050;55.558;-4.644;2024-03-08T13:50:41;17.83;;;5.32;;
64851;SDS011;56050;55.558;-4.644;2024-03-08T13:53:07;14.50;;;5.57;;
64851;SDS011;56050;55.558;-4.644;2024-03-08T13:57:58;9.80;;;4.18;;
64851;SDS011;56050;55.558;-4.644;2024-03-08T14:00:24;14.77;;;5.18;;
64851;SDS011;56050;55.558;-4.644;2024-03-08T14:02:52;15.13;;;4.63;;
64851;SDS011;56050;55.558;-4.644;2024-03-08T14:05:19;16.45;;;4.40;;
64851;SDS011;56050;55.558;-4.644;2024-03-08T14:07:45;11.38;;;5.13;;
64851;SDS011;56050;55.558;-4.644;2024-03-08T14:10:14;14.77;;;5.65;;
64851;SDS011;56050;55.558;-4.644;2024-03-08T14:12:40;11.55;;;4.88;;
64851;SDS011;56050;55.558;-4.644;2024-03-08T14:15:07;13.82;;;5.43;;
64851;SDS011;56050;55.558;-4.644;2024-03-08T14:17:33;11.55;;;4.93;;
64851;SDS011;56050;55.558;-4.644;2024-03-08T14:19:59;11.48;;;4.85;;
64851;SDS011;56050;55.558;-4.644;2024-03-08T14:22:24;16.10;;;5.45;;
64851;SDS011;56050;55.558;-4.644;2024-03-08T14:24:50;11.52;;;4.30;;
64851;SDS011;56050;55.558;-4.644;2024-03-08T14:27:17;18.25;;;5.80;;
64851;SDS011;56050;55.558;-4.644;2024-03-08T14:29:43;13.40;;;5.05;;
64851;SDS011;56050;55.558;-4.644;2024-03-08T14:32:09;11.45;;;5.03;;
64851;SDS011;56050;55.558;-4.644;2024-03-08T14:34:35;11.75;;;4.32;;
64851;SDS011;56050;55.558;-4.644;2024-03-08T14:37:01;16.23;;;5.07;;
64851;SDS011;56050;55.558;-4.644;2024-03-08T14:39:30;14.75;;;5.95;;
64851;SDS011;56050;55.558;-4.644;2024-03-08T14:41:58;15.00;;;5.53;;
64851;SDS011;56050;55.558;-4.644;2024-03-08T14:44:25;13.65;;;4.90;;
64851;SDS011;56050;55.558;-4.644;2024-03-08T14:46:55;12.88;;;4.20;;
64851;SDS011;56050;55.558;-4.644;2024-03-08T14:49:21;13.95;;;4.63;;
64851;SDS011;56050;55.558;-4.644;2024-03-08T14:51:47;12.00;;;5.30;;
64851;SDS011;56050;55.558;-4.644;2024-03-08T14:54:13;11.60;;;5.28;;
64851;SDS011;56050;55.558;-4.644;2024-03-08T14:56:39;19.27;;;5.75;;
64851;SDS011;56050;55.558;-4.644;2024-03-08T14:59:07;10.60;;;5.40;;
64851;SDS011;56050;55.558;-4.644;2024-03-08T15:01:34;16.63;;;5.22;;
64851;SDS011;56050;55.558;-4.644;2024-03-08T15:04:04;10.57;;;4.47;;
64851;SDS011;56050;55.558;-4.644;2024-03-08T15:06:40;19.73;;;4.82;;
64851;SDS011;56050;55.558;-4.644;2024-03-08T15:09:07;9.15;;;4.28;;
64851;SDS011;56050;55.558;-4.644;2024-03-08T15:11:37;10.07;;;5.22;;
64851;SDS011;56050;55.558;-4.644;2024-03-08T15:14:04;13.90;;;5.72;;
64851;SDS011;56050;55.558;-4.644;2024-03-08T15:16:35;11.65;;;5.15;;
64851;SDS011;56050;55.558;-4.644;2024-03-08T15:19:01;13.15;;;6.35;;
64851;SDS011;56050;55.558;-4.644;2024-03-08T15:21:27;14.45;;;5.68;;
64851;SDS011;56050;55.558;-4.644;2024-03-08T15:23:53;9.60;;;4.20;;
64851;SDS011;56050;55.558;-4.644;2024-03-08T15:26:19;12.10;;;4.90;;
64851;SDS011;56050;55.558;-4.644;2024-03-08T15:28:45;14.90;;;5.80;;
64851;SDS011;56050;55.558;-4.644;2024-03-08T15:31:12;10.43;;;4.53;;
64851;SDS011;56050;55.558;-4.644;2024-03-08T15:33:40;13.75;;;6.00;;
64851;SDS011;56050;55.558;-4.644;2024-03-08T15:36:12;12.23;;;6.40;;
64851;SDS011;56050;55.558;-4.644;2024-03-08T15:38:40;13.15;;;5.70;;
64851;SDS011;56050;55.558;-4.644;2024-03-08T15:41:08;14.43;;;5.78;;
64851;SDS011;56050;55.558;-4.644;2024-03-08T15:43:44;16.08;;;5.90;;
64851;SDS011;56050;55.558;-4.644;2024-03-08T15:46:09;12.23;;;4.22;;
64851;SDS011;56050;55.558;-4.644;2024-03-08T15:48:36;12.23;;;4.70;;
64851;SDS011;56050;55.558;-4.644;2024-03-08T15:51:06;26.98;;;8.10;;
64851;SDS011;56050;55.558;-4.644;2024-03-08T15:53:32;12.05;;;5.45;;
64851;SDS011;56050;55.558;-4.644;2024-03-08T15:56:00;17.52;;;7.57;;
64851;SDS011;56050;55.558;-4.644;2024-03-08T15:58:25;15.70;;;5.75;;
64851;SDS011;56050;55.558;-4.644;2024-03-08T16:03:18;14.48;;;5.63;;
64851;SDS011;56050;55.558;-4.644;2024-03-08T16:05:44;13.90;;;5.32;;
64851;SDS011;56050;55.558;-4.644;2024-03-08T16:08:13;11.82;;;4.63;;
64851;SDS011;56050;55.558;-4.644;2024-03-08T16:10:43;13.15;;;5.07;;
64851;SDS011;56050;55.558;-4.644;2024-03-08T16:15:49;9.27;;;3.80;;
64851;SDS011;56050;55.558;-4.644;2024-03-08T16:18:17;13.52;;;5.45;;
64851;SDS011;56050;55.558;-4.644;2024-03-08T16:20:46;15.43;;;5.38;;
64851;SDS011;56050;55.558;-4.644;2024-03-08T16:23:12;14.68;;;5.43;;
64851;SDS011;56050;55.558;-4.644;2024-03-08T16:25:44;9.73;;;5.05;;
64851;SDS011;56050;55.558;-4.644;2024-03-08T16:28:10;16.50;;;7.60;;
64851;SDS011;56050;55.558;-4.644;2024-03-08T16:30:37;17.55;;;7.32;;
64851;SDS011;56050;55.558;-4.644;2024-03-08T16:33:11;16.75;;;6.38;;
64851;SDS011;56050;55.558;-4.644;2024-03-08T16:35:36;17.50;;;6.25;;
64851;SDS011;56050;55.558;-4.644;2024-03-08T16:38:04;16.35;;;5.47;;
64851;SDS011;56050;55.558;-4.644;2024-03-08T16:40:32;17.38;;;5.95;;
64851;SDS011;56050;55.558;-4.644;2024-03-08T16:42:57;16.90;;;5.38;;
64851;SDS011;56050;55.558;-4.644;2024-03-08T16:45:23;11.70;;;5.22;;
64851;SDS011;56050;55.558;-4.644;2024-03-08T16:50:19;12.40;;;5.15;;
64851;SDS011;56050;55.558;-4.644;2024-03-08T16:52:44;12.35;;;5.65;;
64851;SDS011;56050;55.558;-4.644;2024-03-08T16:55:12;17.13;;;6.00;;
64851;SDS011;56050;55.558;-4.644;2024-03-08T16:57:42;12.30;;;4.35;;
64851;SDS011;56050;55.558;-4.644;2024-03-08T17:00:19;14.85;;;5.50;;
64851;SDS011;56050;55.558;-4.644;2024-03-08T17:02:50;14.75;;;5.05;;
64851;SDS011;56050;55.558;-4.644;2024-03-08T17:05:17;14.23;;;4.97;;
64851;SDS011;56050;55.558;-4.644;2024-03-08T17:07:46;12.85;;;4.28;;
64851;SDS011;56050;55.558;-4.644;2024-03-08T17:10:17;13.82;;;5.45;;
64851;SDS011;56050;55.558;-4.644;2024-03-08T17:12:46;19.20;;;5.70;;
64851;SDS011;56050;55.558;-4.644;2024-03-08T17:15:20;15.27;;;5.05;;
64851;SDS011;56050;55.558;-4.644;2024-03-08T17:17:47;13.18;;;4.82;;
64851;SDS011;56050;55.558;-4.644;2024-03-08T17:20:13;11.55;;;6.78;;
64851;SDS011;56050;55.558;-4.644;2024-03-08T17:22:44;9.02;;;4.28;;
64851;SDS011;56050;55.558;-4.644;2024-03-08T17:25:13;10.43;;;5.43;;
64851;SDS011;56050;55.558;-4.644;2024-03-08T17:27:45;13.60;;;4.85;;
64851;SDS011;56050;55.558;-4.644;2024-03-08T17:30:14;13.75;;;5.30;;
64851;SDS011;56050;55.558;-4.644;2024-03-08T17:32:59;16.73;;;4.70;;
64851;SDS011;56050;55.558;-4.644;2024-03-08T17:35:29;14.07;;;6.55;;
64851;SDS011;56050;55.558;-4.644;2024-03-08T17:37:57;13.85;;;6.60;;
64851;SDS011;56050;55.558;-4.644;2024-03-08T17:40:29;8.90;;;4.07;;
64851;SDS011;56050;55.558;-4.644;2024-03-08T17:42:56;16.50;;;7.55;;
64851;SDS011;56050;55.558;-4.644;2024-03-08T17:45:29;18.27;;;7.28;;
64851;SDS011;56050;55.558;-4.644;2024-03-08T17:47:57;13.07;;;5.93;;
64851;SDS011;56050;55.558;-4.644;2024-03-08T17:50:22;10.43;;;3.40;;
64851;SDS011;56050;55.558;-4.644;2024-03-08T17:52:49;13.10;;;5.05;;
64851;SDS011;56050;55.558;-4.644;2024-03-08T17:55:17;13.20;;;4.68;;
64851;SDS011;56050;55.558;-4.644;2024-03-08T17:57:46;11.05;;;5.55;;
64851;SDS011;56050;55.558;-4.644;2024-03-08T18:00:13;11.80;;;4.72;;
64851;SDS011;56050;55.558;-4.644;2024-03-08T18:02:44;16.50;;;5.95;;
64851;SDS011;56050;55.558;-4.644;2024-03-08T18:05:11;11.07;;;5.60;;
64851;SDS011;56050;55.558;-4.644;2024-03-08T18:07:39;17.55;;;4.97;;
64851;SDS011;56050;55.558;-4.644;2024-03-08T18:10:06;14.82;;;6.03;;
64851;SDS011;56050;55.558;-4.644;2024-03-08T18:12:32;16.27;;;5.30;;
64851;SDS011;56050;55.558;-4.644;2024-03-08T18:14:57;10.48;;;5.38;;
64851;SDS011;56050;55.558;-4.644;2024-03-08T18:17:23;18.23;;;4.97;;
64851;SDS011;56050;55.558;-4.644;2024-03-08T18:22:16;16.30;;;6.50;;
64851;SDS011;56050;55.558;-4.644;2024-03-08T18:24:41;14.85;;;5.45;;
64851;SDS011;56050;55.558;-4.644;2024-03-08T18:27:07;12.85;;;6.95;;
64851;SDS011;56050;55.558;-4.644;2024-03-08T18:29:34;18.10;;;6.38;;